CUC weather

Camilo Daza International Airport
CĂșcuta, Norte de Santander Department, Colombia

Public forecast

Using degrees Celsius for public forecast. Weather courtesy of forecast.io.

Current aviation weather report (METAR) for Camilo Daza International Airport

Retrieved 2019/10/23 04:00 UTC (49 minutes ago):

SKCC 230400Z VRB02KT 5000 DZ SCT012 BKN070 22/22 A2998

Aviation forecast (TAF) for Camilo Daza International Airport

Retrieved 2019-10-23 00:30 UTC (4 hours ago):

TAF SKCC 222230Z 2300/2324 VRB02KT 9999 SCT020 SCT080 TEMPO 2300/2302 6000 RADZ SCT017CB TEMPO 2309/2312 4000 BCFG SCT010 BECMG 2313/2315 36008KT TEMPO 2320/2324 6000 RA SCT017CB TX32/2318Z TN22/2311Z